Flight Track Log - Related Links

Times and Time Zones

All times are in EDT time to prevent confusion due to time zone crossing. See the UPS2973 flight status page for this flight to view local times or setup timezone preferences in your user account.

Time Position Orientation Groundspeed Altitude Reporting Facility
EDT Latitude Longitude Course Direction KTS MPH feet Rate Location/Type
Fri 09:18:29 AM 45.5908 -122.6144 303° West 159 183 700  Level Seattle Center
Fri 09:18:59 AM 45.6028 -122.6406 303° West 169 194 1,900 1,964 Climbing Seattle Center
Fri 09:19:24 AM 45.6136 -122.6647 303° West 168 193 2,500 2,073 Climbing Seattle Center
Fri 09:19:54 AM 45.6311 -122.7061 301° West 229 264 3,800 2,300 Climbing Seattle Center
Fri 09:20:24 AM 45.6475 -122.7478 299° West 239 275 4,800 2,656 Climbing Seattle Center
Fri 09:20:55 AM 45.6544 -122.8017 280° West 270 311 6,500 3,049 Climbing Seattle Center
Fri 09:21:25 AM 45.6253 -122.8281 212° Southwest 279 321 7,900 2,769 Climbing Seattle Center
Fri 09:22:26 AM 45.5711 -122.7550 137° Southeast 294 338 10,700 2,628 Climbing Seattle Center
Fri 09:23:26 AM 45.5203 -122.6328 121° Southeast 353 406 13,200 2,926 Climbing Seattle Center
Fri 09:24:27 AM 45.4700 -122.5050 119° Southeast 373 429 16,600 2,826 Climbing Seattle Center
Fri 09:25:27 AM 45.4228 -122.3897 120° Southeast 384 442 18,900 2,529 Climbing Seattle Center
Fri 09:26:28 AM 45.3611 -122.2403 120° Southeast 424 488 21,700 2,557 Climbing Seattle Center
Fri 09:27:29 AM 45.3008 -122.0917 120° Southeast 440 506 24,100 2,182 Climbing Seattle Center
Fri 09:28:29 AM 45.2400 -121.9231 117° Southeast 471 542 26,100 1,934 Climbing Seattle Center
Fri 09:29:30 AM 45.1956 -121.7508 110° East 487 560 28,000 1,785 Climbing Seattle Center
Fri 09:30:30 AM 45.1481 -121.5647 110° East 507 583 29,700 2,132 Climbing Seattle Center
Fri 09:31:31 AM 45.0881 -121.3339 110° East 510 587 32,300 2,656 Climbing Seattle Center
Fri 09:32:32 AM 45.0403 -121.1522 110° East 499 574 35,100 2,331 Climbing Seattle Center
Fri 09:33:32 AM 44.9931 -120.9744 111° Southeast 473 544 37,000 942 Climbing Seattle Center
Fri 09:34:33 AM 44.9478 -120.8050 111° Southeast 467 537 37,000  Level Seattle Center
Fri 09:35:34 AM 44.9011 -120.6314 111° Southeast 477 549 37,000  Level Seattle Center
Fri 09:36:34 AM 44.8533 -120.4547 111° Southeast 483 556 37,000  Level Seattle Center
Fri 09:37:35 AM 44.8061 -120.2789 111° Southeast 485 558 37,000  Level Seattle Center
Fri 09:38:36 AM 44.7881 -120.0906 98° East 484 557 37,000  Level Seattle Center
Fri 09:39:37 AM 44.7928 -119.9106 88° East 484 557 37,000 545 Level Seattle Center
Fri 09:40:37 AM 44.7978 -119.7247 88° East 485 558 38,100 992 Climbing Seattle Center
Fri 09:41:38 AM 44.7981 -119.5025 90° East 481 554 39,000 443 Climbing Seattle Center
Fri 09:42:39 AM 44.7967 -119.3189 91° East 477 549 39,000  Level Seattle Center
Fri 09:43:39 AM 44.7956 -119.1347 90° East 475 547 39,000  Level Seattle Center
Fri 09:44:40 AM 44.7944 -118.9506 90° East 474 545 39,000  Level Seattle Center
Fri 09:45:41 AM 44.7931 -118.7658 91° East 474 545 39,000  Level Seattle Center
Fri 09:46:42 AM 44.7911 -118.5811 91° East 474 545 39,000  Level Seattle Center
Fri 09:47:43 AM 44.7889 -118.3964 91° East 474 545 39,000  Level Seattle Center
Fri 09:48:43 AM 44.7861 -118.2111 91° East 475 547 39,000  Level Seattle Center
Fri 09:49:44 AM 44.7831 -118.0031 91° East 475 547 39,000  Level Seattle Center
Fri 09:50:45 AM 44.7797 -117.8175 91° East 475 547 39,000  Level Seattle Center
Fri 09:51:46 AM 44.7764 -117.6319 91° East 475 547 39,000  Level Seattle Center
Fri 09:52:46 AM 44.7722 -117.4467 92° East 475 547 39,000  Level Seattle Center
Fri 09:53:47 AM 44.7686 -117.2614 92° East 475 547 39,000  Level Seattle Center
Fri 09:54:48 AM 44.7639 -117.0767 92° East 474 545 39,000  Level Seattle Center
Fri 09:56:13 AM 44.7575 -116.8242 92° East 475 547 39,000  Level Salt Lake Center
Fri 09:57:14 AM 44.7519 -116.6383 92° East 475 547 39,000  Level Salt Lake Center
Fri 09:58:16 AM 44.7467 -116.4522 92° East 475 547 39,000  Level Salt Lake Center
Fri 09:58:51 AM 44.7433 -116.3339 92° East 474 545 39,000  Level Seattle Center
Fri 09:59:53 AM 44.7375 -116.1461 92° East 475 547 39,000  Level Seattle Center
Fri 10:00:54 AM 44.7308 -115.9583 93° East 475 547 39,000  Level Seattle Center
Fri 10:02:19 AM 44.7219 -115.6967 93° East 475 547 39,000  Level Seattle Center
Fri 10:03:25 AM 44.7133 -115.4783 93° East 475 547 39,000  Level Salt Lake Center
Fri 10:04:26 AM 44.7061 -115.2922 93° East 476 548 39,000  Level Salt Lake Center
Fri 10:05:28 AM 44.6986 -115.1089 93° East 475 547 39,000  Level Salt Lake Center
Fri 10:06:29 AM 44.6908 -114.9258 93° East 472 543 39,000  Level Salt Lake Center
Fri 10:07:31 AM 44.6822 -114.7425 94° East 472 543 39,000  Level Salt Lake Center
Fri 10:08:33 AM 44.6744 -114.5611 93° East 469 540 39,000  Level Salt Lake Center
Fri 10:09:34 AM 44.6656 -114.3783 94° East 469 540 39,000  Level Salt Lake Center
Fri 10:10:36 AM 44.6564 -114.1975 94° East 468 539 39,000  Level Salt Lake Center
Fri 10:11:38 AM 44.6453 -113.9808 94° East 467 537 39,000  Level Salt Lake Center
Fri 10:12:39 AM 44.6369 -113.7992 94° East 467 537 39,000  Level Salt Lake Center
Fri 10:13:41 AM 44.6278 -113.6181 94° East 467 537 39,000  Level Salt Lake Center
Fri 10:14:43 AM 44.6178 -113.4364 94° East 467 537 39,000  Level Salt Lake Center
Fri 10:15:44 AM 44.6067 -113.2542 95° East 467 537 39,000  Level Salt Lake Center
Fri 10:16:46 AM 44.5956 -113.0722 95° East 468 539 39,000  Level Salt Lake Center
Fri 10:17:48 AM 44.5844 -112.8894 95° East 468 539 39,000  Level Salt Lake Center
Fri 10:18:50 AM 44.5697 -112.6656 95° East 472 543 39,000  Level Salt Lake Center
Fri 10:19:51 AM 44.5594 -112.4869 95° East 472 543 39,000  Level Salt Lake Center
Fri 10:20:53 AM 44.5458 -112.2928 96° East 472 543 39,000  Level Salt Lake Center
Fri 10:21:55 AM 44.5331 -112.1081 95° East 472 543 39,000  Level Salt Lake Center
Fri 10:22:57 AM 44.5203 -111.9217 95° East 472 543 39,000  Level Salt Lake Center
Fri 10:23:59 AM 44.5064 -111.7364 96° East 472 543 39,000  Level Salt Lake Center
Fri 10:25:01 AM 44.4936 -111.5511 95° East 472 543 39,000  Level Salt Lake Center
Fri 10:26:03 AM 44.4783 -111.3511 96° East 472 543 39,000  Level Salt Lake Center
Fri 10:27:04 AM 44.4636 -111.1667 96° East 471 542 39,000  Level Salt Lake Center
Fri 10:28:06 AM 44.4494 -110.9836 96° East 471 542 39,000  Level Salt Lake Center
Fri 10:29:08 AM 44.4344 -110.7989 96° East 471 542 39,000  Level Salt Lake Center
Fri 10:30:10 AM 44.4194 -110.6164 97° East 470 541 39,000  Level Salt Lake Center
Fri 10:31:12 AM 44.4044 -110.4239 96° East 468 539 39,000  Level Salt Lake Center
Fri 10:32:14 AM 44.3897 -110.2444 96° East 465 535 39,000  Level Salt Lake Center
Fri 10:33:16 AM 44.3733 -110.0644 97° East 465 535 39,000  Level Salt Lake Center
Fri 10:34:18 AM 44.3592 -109.8858 96° East 461 531 39,000  Level Salt Lake Center
Fri 10:35:20 AM 44.3439 -109.7092 97° East 457 526 39,000  Level Salt Lake Center
Fri 10:36:22 AM 44.3267 -109.5297 98° East 462 532 39,000  Level Salt Lake Center
Fri 10:37:24 AM 44.3092 -109.3408 97° East 459 528 39,000  Level Salt Lake Center
Fri 10:38:26 AM 44.2933 -109.1661 97° East 459 528 39,000  Level Salt Lake Center
Fri 10:39:28 AM 44.2753 -108.9897 98° East 459 528 39,000  Level Salt Lake Center
Fri 10:40:30 AM 44.2550 -108.7808 98° East 459 528 39,000  Level Salt Lake Center
Fri 10:41:32 AM 44.2381 -108.6064 98° East 459 528 39,000  Level Salt Lake Center
Fri 10:42:35 AM 44.2200 -108.4306 98° East 460 529 39,000  Level Salt Lake Center
Fri 10:43:37 AM 44.2025 -108.2575 98° East 459 528 39,000  Level Salt Lake Center
Fri 10:44:39 AM 44.1831 -108.0833 99° East 458 527 39,000  Level Salt Lake Center
Fri 10:45:41 AM 44.1617 -107.8764 98° East 458 527 39,000  Level Salt Lake Center
Fri 10:46:43 AM 44.1425 -107.7042 99° East 457 526 39,000  Level Salt Lake Center
Fri 10:47:45 AM 44.1250 -107.5294 98° East 457 526 39,000  Level Salt Lake Center
Fri 10:48:47 AM 44.1056 -107.3583 99° East 455 524 39,000  Level Salt Lake Center
Fri 10:49:49 AM 44.0858 -107.1847 99° East 455 524 39,000  Level Salt Lake Center
Fri 10:50:51 AM 44.0636 -106.9781 98° East 455 524 39,000  Level Salt Lake Center
Fri 10:52:03 AM 44.0425 -106.7961 99° East 455 524 39,000  Level Denver Center
Fri 10:53:04 AM 44.0206 -106.6017 99° East 455 524 39,000  Level Denver Center
Fri 10:54:06 AM 44.0003 -106.4353 100° East 456 525 39,000  Level Denver Center
Fri 10:55:00 AM 43.9908 -106.2839 95° East 456 525 39,000  Level Salt Lake Center
Fri 10:56:02 AM 43.9811 -106.0975 94° East 457 526 39,000  Level Salt Lake Center
Fri 10:57:13 AM 43.9667 -105.8728 95° East 457 526 39,000  Level Denver Center
Fri 10:58:15 AM 43.9547 -105.7044 96° East 457 526 39,000  Level Denver Center
Fri 10:59:17 AM 43.9422 -105.5092 95° East 457 526 39,000  Level Denver Center
Fri 11:00:19 AM 43.9311 -105.3417 95° East 457 526 39,000  Level Denver Center
Fri 11:01:21 AM 43.9167 -105.1467 96° East 457 526 39,000  Level Denver Center
Fri 11:02:23 AM 43.9050 -104.9800 95° East 455 524 39,000  Level Denver Center
Fri 11:03:25 AM 43.8903 -104.7869 96° East 454 522 39,000  Level Denver Center
Fri 11:04:27 AM 43.8783 -104.6225 96° East 451 519 39,000  Level Denver Center
Fri 11:05:29 AM 43.8656 -104.4578 96° East 450 518 39,000  Level Denver Center
Fri 11:06:32 AM 43.8514 -104.2694 96° East 444 511 39,000  Level Denver Center
Fri 11:07:34 AM 43.8381 -104.1092 97° East 441 507 39,000  Level Denver Center
Fri 11:08:36 AM 43.8236 -103.9206 96° East 441 507 39,000  Level Denver Center
Fri 11:09:38 AM 43.8103 -103.7594 96° East 440 506 39,000  Level Denver Center
Fri 11:10:40 AM 43.7944 -103.5706 97° East 441 507 39,000  Level Denver Center
Fri 11:11:42 AM 43.7806 -103.4072 97° East 443 510 39,000  Level Denver Center
Fri 11:12:44 AM 43.7656 -103.2172 96° East 442 509 39,000  Level Denver Center
Fri 11:13:46 AM 43.7500 -103.0486 97° East 452 520 39,000  Level Denver Center
Fri 11:14:48 AM 43.7322 -102.8539 97° East 455 524 39,000  Level Denver Center
Fri 11:15:50 AM 43.7164 -102.6831 97° East 461 531 39,000  Level Denver Center
Fri 11:16:53 AM 43.6958 -102.4869 98° East 462 532 39,000  Level Denver Center
Fri 11:17:55 AM 43.6794 -102.3200 98° East 461 531 39,000  Level Denver Center
Fri 11:18:57 AM 43.6606 -102.1242 98° East 460 529 39,000  Level Denver Center
Fri 11:19:59 AM 43.6428 -101.9458 98° East 459 528 39,000  Level Denver Center
Fri 11:21:01 AM 43.6253 -101.7731 98° East 459 528 39,000  Level Denver Center
Fri 11:22:03 AM 43.6081 -101.6000 98° East 458 527 39,000  Level Denver Center
Fri 11:23:05 AM 43.5900 -101.4286 98° East 455 524 39,000  Level Denver Center
Fri 11:24:07 AM 43.5722 -101.2578 98° East 454 522 39,000  Level Denver Center
Fri 11:25:09 AM 43.5542 -101.0878 98° East 453 521 39,000  Level Denver Center
Fri 11:26:11 AM 43.5317 -100.8839 99° East 451 519 39,000  Level Denver Center
Fri 11:27:13 AM 43.5131 -100.7136 99° East 451 519 39,000  Level Denver Center
Fri 11:27:38 AM 43.5042 -100.6456 100° East 451 519 39,000  Level Denver Center
Fri 11:28:40 AM 43.4681 -100.4800 107° East 452 520 39,000  Level Denver Center
Fri 11:29:42 AM 43.4339 -100.3158 106° East 452 520 39,000  Level Denver Center
Fri 11:30:45 AM 43.3981 -100.1489 106° East 452 520 39,000  Level Denver Center
Fri 11:31:47 AM 43.3536 -99.9539 107° East 452 520 39,000  Level Denver Center
Fri 11:32:49 AM 43.3161 -99.7911 108° East 452 520 39,000  Level Denver Center
Fri 11:33:51 AM 43.2789 -99.6297 108° East 449 517 39,000  Level Denver Center
Fri 11:34:49 AM 43.2428 -99.4706 107° East 447 514 39,000  Level Minneapolis Center
Fri 11:35:51 AM 43.2181 -99.3053 102° East 446 513 39,000  Level Minneapolis Center
Fri 11:36:53 AM 43.2006 -99.1378 98° East 446 513 39,000  Level Minneapolis Center
Fri 11:37:55 AM 43.1814 -98.9472 98° East 447 514 39,000  Level Minneapolis Center
Fri 11:38:57 AM 43.1642 -98.7781 98° East 450 518 39,000  Level Minneapolis Center
Fri 11:39:59 AM 43.1464 -98.6053 98° East 459 528 39,000  Level Minneapolis Center
Fri 11:41:01 AM 43.1242 -98.4303 100° East 469 540 39,000  Level Minneapolis Center
Fri 11:42:04 AM 43.0822 -98.2594 109° East 474 545 39,000  Level Minneapolis Center
Fri 11:43:06 AM 43.0289 -98.0533 109° East 478 550 39,000  Level Minneapolis Center
Fri 11:44:08 AM 42.9819 -97.8778 110° East 481 554 39,000  Level Minneapolis Center
Fri 11:45:10 AM 42.9369 -97.7100 110° East 482 555 39,000  Level Minneapolis Center
Fri 11:46:12 AM 42.8908 -97.5389 110° East 482 555 39,000  Level Minneapolis Center
Fri 11:47:14 AM 42.8447 -97.3689 110° East 482 555 39,000  Level Minneapolis Center
Fri 11:48:16 AM 42.7983 -97.1997 110° East 481 554 39,000  Level Minneapolis Center
Fri 11:49:18 AM 42.7428 -96.9989 111° Southeast 478 550 39,000  Level Minneapolis Center
Fri 11:50:20 AM 42.6931 -96.8194 111° Southeast 476 548 39,000  Level Minneapolis Center
Fri 11:51:23 AM 42.6475 -96.6569 111° Southeast 474 545 39,000  Level Minneapolis Center
Fri 11:52:25 AM 42.5992 -96.4853 111° Southeast 472 543 39,000  Level Minneapolis Center
Fri 11:53:27 AM 42.5542 -96.3258 111° Southeast 471 542 39,000  Level Minneapolis Center
Fri 11:54:29 AM 42.5069 -96.1603 111° Southeast 470 541 39,000  Level Minneapolis Center
Fri 11:55:31 AM 42.4594 -95.9956 111° Southeast 469 540 39,000  Level Minneapolis Center
Fri 11:56:33 AM 42.4119 -95.8311 111° Southeast 469 540 39,000  Level Minneapolis Center
Fri 11:57:35 AM 42.3544 -95.6339 111° Southeast 469 540 39,000  Level Minneapolis Center
Fri 11:58:38 AM 42.3064 -95.4697 112° Southeast 469 540 39,000  Level Minneapolis Center
Fri 11:59:40 AM 42.2581 -95.3056 112° Southeast 469 540 39,000  Level Minneapolis Center
Fri 12:00:42 PM 42.2094 -95.1417 112° Southeast 469 540 39,000  Level Minneapolis Center
Fri 12:01:44 PM 42.1603 -94.9778 112° Southeast 470 541 39,000  Level Minneapolis Center
Fri 12:02:46 PM 42.1111 -94.8139 112° Southeast 470 541 39,000  Level Minneapolis Center
Fri 12:03:48 PM 42.0517 -94.6178 112° Southeast 470 541 39,000  Level Minneapolis Center
Fri 12:04:50 PM 42.0019 -94.4544 112° Southeast 471 542 39,000  Level Minneapolis Center
Fri 12:05:53 PM 41.9519 -94.2908 112° Southeast 471 542 39,000  Level Minneapolis Center
Fri 12:06:55 PM 41.9014 -94.1269 112° Southeast 473 544 39,000  Level Minneapolis Center
Fri 12:07:57 PM 41.8506 -93.9628 113° Southeast 474 545 39,000  Level Minneapolis Center
Fri 12:08:59 PM 41.7967 -93.7903 113° Southeast 475 547 39,000  Level Minneapolis Center
Fri 12:10:01 PM 41.7442 -93.6228 113° Southeast 475 547 39,000  Level Minneapolis Center
Fri 12:11:03 PM 41.6947 -93.4658 113° Southeast 476 548 39,000  Level Minneapolis Center
Fri 12:12:05 PM 41.6331 -93.2719 113° Southeast 476 548 39,000  Level Minneapolis Center
Fri 12:13:08 PM 41.5808 -93.1100 113° Southeast 476 548 39,000  Level Minneapolis Center
Fri 12:14:10 PM 41.5286 -92.9478 113° Southeast 477 549 39,000  Level Minneapolis Center
Fri 12:15:12 PM 41.4764 -92.7856 113° Southeast 478 550 39,000  Level Minneapolis Center
Fri 12:16:14 PM 41.4233 -92.6228 113° Southeast 479 551 39,000  Level Minneapolis Center
Fri 12:17:16 PM 41.3589 -92.4269 114° Southeast 481 554 39,000  Level Minneapolis Center
Fri 12:18:18 PM 41.3050 -92.2631 114° Southeast 483 556 39,000  Level Minneapolis Center
Fri 12:19:20 PM 41.2506 -92.0992 114° Southeast 484 557 39,000  Level Minneapolis Center
Fri 12:20:23 PM 41.1958 -91.9344 114° Southeast 484 557 39,000  Level Minneapolis Center
Fri 12:21:25 PM 41.1408 -91.7700 114° Southeast 485 558 39,000  Level Minneapolis Center
Fri 12:22:36 PM 41.0739 -91.5739 114° Southeast 489 563 39,000  Level Kansas City Center
Fri 12:23:41 PM 41.0178 -91.4094 114° Southeast 490 564 39,000  Level Kansas City Center
Fri 12:24:41 PM 40.9536 -91.2219 114° Southeast 491 565 39,000  Level Kansas City Center
Fri 12:25:42 PM 40.8964 -91.0567 115° Southeast 493 567 39,000  Level Kansas City Center
Fri 12:26:45 PM 40.8392 -90.8911 115° Southeast 494 568 39,000  Level Kansas City Center
Fri 12:27:46 PM 40.7811 -90.7247 115° Southeast 496 571 39,000  Level Kansas City Center
Fri 12:28:50 PM 40.7114 -90.5261 115° Southeast 498 573 39,000  Level Kansas City Center
Fri 12:29:51 PM 40.6528 -90.3603 115° Southeast 500 575 39,000  Level Kansas City Center
Fri 12:30:55 PM 40.5911 -90.1869 115° Southeast 502 578 39,000  Level Kansas City Center
Fri 12:31:56 PM 40.5236 -89.9981 115° Southeast 504 580 39,000  Level Kansas City Center
Fri 12:32:57 PM 40.4633 -89.8311 115° Southeast 506 582 39,000  Level Kansas City Center
Fri 12:33:59 PM 40.4033 -89.6650 115° Southeast 508 585 39,000 -143 Level Kansas City Center
Fri 12:35:03 PM 40.3456 -89.4969 114° Southeast 505 581 38,700 -672 Descending Kansas City Center
Fri 12:36:04 PM 40.3169 -89.3231 102° East 495 570 37,600 -1,008 Descending Kansas City Center
Fri 12:37:08 PM 40.2878 -89.1497 102° East 493 567 36,600 -1,104 Descending Kansas City Center
Fri 12:38:09 PM 40.2144 -88.9469 115° Southeast 502 578 35,300 -1,000 Descending Kansas City Center
Fri 12:39:26 PM 40.1364 -88.7614 119° Southeast 501 577 34,300 -950 Descending Chicago Center
Fri 12:40:28 PM 40.0719 -88.6031 118° Southeast 495 570 33,100 -1,548 Descending Chicago Center
Fri 12:41:30 PM 40.0067 -88.4436 118° Southeast 496 571 31,100 -1,984 Descending Chicago Center
Fri 12:42:32 PM 39.9281 -88.2522 118° Southeast 498 573 29,000 -1,016 Descending Chicago Center
Fri 12:43:34 PM 39.8617 -88.0989 119° Southeast 491 565 29,000 -48 Level Chicago Center
Fri 12:44:37 PM 39.7922 -87.9444 120° Southeast 494 568 28,900 -528 Descending Chicago Center
Fri 12:45:39 PM 39.7083 -87.8036 128° Southeast 494 568 27,900 -1,016 Descending Chicago Center
Fri 12:46:41 PM 39.6225 -87.6706 130° Southeast 484 557 26,800 -1,113 Descending Chicago Center
Fri 12:47:43 PM 39.5217 -87.5156 130° Southeast 470 541 25,600 -1,080 Descending Chicago Center
Fri 12:49:11 PM 39.4069 -87.3406 130° Southeast 459 528 24,100 -960 Descending Indianapolis Center
Fri 12:50:13 PM 39.3264 -87.2178 130° Southeast 451 519 23,200 -871 Descending Indianapolis Center
Fri 12:51:15 PM 39.2447 -87.0944 131° Southeast 441 507 22,300 -871 Descending Indianapolis Center
Fri 12:52:17 PM 39.1556 -86.9594 130° Southeast 427 491 21,400 -1,200 Descending Indianapolis Center
Fri 12:53:20 PM 39.0872 -86.8575 131° Southeast 413 475 19,800 -1,728 Descending Indianapolis Center
Fri 12:54:22 PM 39.0139 -86.7478 131° Southeast 403 464 17,800 -1,694 Descending Indianapolis Center
Fri 12:55:24 PM 38.9419 -86.6403 131° Southeast 393 452 16,300 -1,742 Descending Indianapolis Center
Fri 12:56:26 PM 38.8589 -86.5164 131° Southeast 377 434 14,200 -1,790 Descending Indianapolis Center
Fri 12:57:28 PM 38.7919 -86.4175 131° Southeast 365 420 12,600 -1,500 Descending Indianapolis Center
Fri 12:58:30 PM 38.7269 -86.3217 131° Southeast 353 406 11,100 -968 Descending Indianapolis Center
Fri 12:59:32 PM 38.6586 -86.2356 135° Southeast 343 395 10,600 -480 Descending Indianapolis Center
Fri 01:00:35 PM 38.5883 -86.1517 137° Southeast 343 395 10,100 -528 Descending Indianapolis Center
Fri 01:01:37 PM 38.5122 -86.0972 151° Southeast 308 354 9,500 -629 Descending Indianapolis Center
Fri 01:02:39 PM 38.4342 -86.0536 156° South 307 353 8,800 -823 Descending Indianapolis Center
Fri 01:03:41 PM 38.3414 -86.0008 156° South 305 351 7,800 -871 Descending Indianapolis Center
Fri 01:04:43 PM 38.2700 -85.9461 149° Southeast 301 346 7,000 -726 Descending Indianapolis Center
Fri 01:05:45 PM 38.2006 -85.8861 146° Southeast 301 346 6,300 -629 Descending Indianapolis Center
Fri 01:06:47 PM 38.1306 -85.8394 152° Southeast 286 329 5,700 -1,016 Descending Indianapolis Center
Fri 01:07:49 PM 38.0611 -85.8189 167° South 269 310 4,200 -1,248 Descending Indianapolis Center
Fri 01:08:52 PM 37.9867 -85.7839 160° South 262 302 3,100 -796 Descending Indianapolis Center
Fri 01:11:35 PM 38.1167 -85.7333 17° North 133 153 1,200 -699 Descending Louisville TRACON

Login

Don't have an account? Register now (free) for customized features, flight alerts, and more!